Time,TemperatureF,DewpointF,PressureIn,WindDirection,WindDirectionDegrees,WindSpeedMPH,WindSpeedGustMPH,Humidity,HourlyPrecipIn,Conditions,Clouds,dailyrainin,SoftwareType,DateUTC
2013-05-29 00:00:00,56.2,55.7,30.12,ESE,115,0.0,0.0,98,0.02,,---,0.02,VWS V14.01,2013-05-29 04:00:00,
2013-05-29 00:10:00,56.2,55.7,30.13,ESE,115,0.0,0.0,98,0.02,,---,0.00,VWS V14.01,2013-05-29 04:10:00,
2013-05-29 00:20:00,56.3,55.8,30.12,ESE,115,0.0,0.0,98,0.02,,---,0.00,VWS V14.01,2013-05-29 04:20:00,
2013-05-29 00:30:00,56.3,55.8,30.12,ESE,108,0.0,0.0,98,0.01,,---,0.00,VWS V14.01,2013-05-29 04:30:00,
2013-05-29 00:40:00,56.3,56.0,30.11,ESE,109,0.0,0.0,99,0.02,,---,0.01,VWS V14.01,2013-05-29 04:40:00,
2013-05-29 00:50:00,56.3,56.0,30.11,ESE,108,0.0,0.0,99,0.03,,---,0.02,VWS V14.01,2013-05-29 04:50:00,
2013-05-29 01:00:00,56.3,56.0,30.11,SE,137,0.0,0.0,99,0.03,,---,0.03,VWS V14.01,2013-05-29 05:00:00,
2013-05-29 01:10:00,56.3,56.0,30.11,East,99,0.0,0.0,99,0.04,,---,0.04,VWS V14.01,2013-05-29 05:10:00,
2013-05-29 01:20:00,56.2,55.9,30.11,ESE,105,0.0,0.0,99,0.04,,---,0.04,VWS V14.01,2013-05-29 05:20:00,
2013-05-29 01:30:00,56.2,55.9,30.11,ESE,105,0.0,0.0,99,0.10,,---,0.10,VWS V14.01,2013-05-29 05:30:00,
2013-05-29 01:40:00,56.2,55.9,30.10,East,82,0.0,0.0,99,0.17,,---,0.17,VWS V14.01,2013-05-29 05:40:00,
2013-05-29 01:50:00,56.2,55.9,30.10,East,82,0.0,0.0,99,0.17,,---,0.18,VWS V14.01,2013-05-29 05:50:00,
2013-05-29 02:00:00,56.3,56.0,30.10,East,82,0.0,0.0,99,0.16,,---,0.18,VWS V14.01,2013-05-29 06:00:00,
2013-05-29 02:10:00,56.2,55.9,30.09,East,82,0.0,0.0,99,0.15,,---,0.18,VWS V14.01,2013-05-29 06:10:00,
2013-05-29 02:20:00,56.2,55.9,30.08,East,82,0.0,0.0,99,0.14,,---,0.18,VWS V14.01,2013-05-29 06:20:00,
2013-05-29 02:30:00,56.1,55.8,30.08,East,82,0.0,0.0,99,0.14,,---,0.18,VWS V14.01,2013-05-29 06:30:00,
2013-05-29 02:40:00,56.0,55.7,30.08,East,85,0.0,0.0,99,0.08,,---,0.18,VWS V14.01,2013-05-29 06:40:00,
2013-05-29 02:50:00,56.0,55.7,30.07,ESE,116,0.0,2.0,99,0.01,,---,0.18,VWS V14.01,2013-05-29 06:50:00,
2013-05-29 03:00:00,55.9,55.6,30.06,ESE,108,1.0,3.0,99,0.00,,---,0.18,VWS V14.01,2013-05-29 07:00:00,
2013-05-29 03:10:00,55.8,55.5,30.06,South,169,0.0,1.0,99,0.00,,---,0.18,VWS V14.01,2013-05-29 07:10:00,
2013-05-29 03:20:00,55.8,55.5,30.06,ESE,122,0.0,0.0,99,0.00,,---,0.18,VWS V14.01,2013-05-29 07:20:00,
2013-05-29 03:30:00,55.7,55.4,30.06,ESE,105,0.0,0.0,99,0.00,,---,0.18,VWS V14.01,2013-05-29 07:30:00,
2013-05-29 03:40:00,55.7,55.4,30.06,ESE,105,0.0,0.0,99,0.00,,---,0.18,VWS V14.01,2013-05-29 07:40:00,
2013-05-29 03:50:00,55.7,55.4,30.05,SE,137,0.0,0.0,99,0.00,,---,0.18,VWS V14.01,2013-05-29 07:50:00,
2013-05-29 04:00:00,55.6,55.3,30.06,SSE,148,0.0,2.0,99,0.00,,---,0.18,VWS V14.01,2013-05-29 08:00:00,
2013-05-29 04:10:00,55.6,55.3,30.06,South,183,0.0,0.0,99,0.00,,---,0.18,VWS V14.01,2013-05-29 08:10:00,
2013-05-29 04:20:00,55.6,55.3,30.05,South,183,0.0,0.0,99,0.00,,---,0.18,VWS V14.01,2013-05-29 08:20:00,
2013-05-29 04:30:00,55.6,55.3,30.05,ESE,123,0.0,0.0,99,0.00,,---,0.18,VWS V14.01,2013-05-29 08:30:00,
2013-05-29 04:40:00,55.7,55.4,30.06,ESE,122,0.0,0.0,99,0.00,,---,0.18,VWS V14.01,2013-05-29 08:40:00,
2013-05-29 04:50:00,55.7,55.4,30.06,ESE,122,0.0,0.0,99,0.00,,---,0.18,VWS V14.01,2013-05-29 08:50:00,
2013-05-29 05:00:00,55.7,55.4,30.06,ESE,123,0.0,0.0,99,0.00,,---,0.18,VWS V14.01,2013-05-29 09:00:00,
2013-05-29 05:10:00,55.8,55.5,30.06,ESE,122,0.0,0.0,99,0.00,,---,0.18,VWS V14.01,2013-05-29 09:10:00,
2013-05-29 05:20:00,55.9,55.6,30.06,ESE,122,0.0,0.0,99,0.00,,---,0.18,VWS V14.01,2013-05-29 09:20:00,
2013-05-29 05:30:00,55.9,55.6,30.07,ESE,123,0.0,0.0,99,0.00,,---,0.18,VWS V14.01,2013-05-29 09:30:00,
2013-05-29 05:40:00,55.9,55.6,30.06,ESE,122,0.0,0.0,99,0.00,,---,0.18,VWS V14.01,2013-05-29 09:40:00,
2013-05-29 05:50:00,55.9,55.6,30.06,ESE,122,0.0,0.0,99,0.00,,---,0.18,VWS V14.01,2013-05-29 09:50:00,
2013-05-29 06:00:00,56.0,55.7,30.06,ESE,122,0.0,0.0,99,0.01,,---,0.19,VWS V14.01,2013-05-29 10:00:00,
2013-05-29 06:10:00,56.0,55.7,30.06,ESE,122,0.0,0.0,99,0.01,,---,0.19,VWS V14.01,2013-05-29 10:10:00,
2013-05-29 06:20:00,56.0,55.7,30.06,ESE,122,0.0,0.0,99,0.02,,---,0.20,VWS V14.01,2013-05-29 10:20:00,
2013-05-29 06:30:00,56.1,55.8,30.06,ESE,122,0.0,0.0,99,0.02,,---,0.20,VWS V14.01,2013-05-29 10:30:00,
2013-05-29 06:40:00,56.1,55.8,30.06,SE,125,0.0,0.0,99,0.02,,---,0.20,VWS V14.01,2013-05-29 10:40:00,
2013-05-29 06:50:00,56.2,55.9,30.06,SE,125,0.0,0.0,99,0.02,,---,0.20,VWS V14.01,2013-05-29 10:50:00,
2013-05-29 07:00:00,56.2,55.9,30.06,SE,126,0.0,0.0,99,0.02,,---,0.20,VWS V14.01,2013-05-29 11:00:00,
2013-05-29 07:10:00,56.3,56.3,30.06,SE,125,0.0,0.0,100,0.01,,---,0.20,VWS V14.01,2013-05-29 11:10:00,
2013-05-29 07:20:00,56.5,56.5,30.07,SE,125,0.0,0.0,100,0.01,,---,0.20,VWS V14.01,2013-05-29 11:20:00,
2013-05-29 07:30:00,56.6,56.6,30.06,SE,125,0.0,0.0,100,0.01,,---,0.21,VWS V14.01,2013-05-29 11:30:00,
2013-05-29 07:40:00,57.0,57.0,30.06,SE,125,0.0,0.0,100,0.01,,---,0.21,VWS V14.01,2013-05-29 11:40:00,
2013-05-29 07:50:00,56.9,56.6,30.06,SE,126,0.0,0.0,99,0.01,,---,0.21,VWS V14.01,2013-05-29 11:50:00,
2013-05-29 08:00:00,57.0,56.7,30.05,SE,125,0.0,0.0,99,0.01,,---,0.21,VWS V14.01,2013-05-29 12:00:00,
2013-05-29 08:10:00,57.1,56.8,30.06,SE,126,0.0,0.0,99,0.01,,---,0.21,VWS V14.01,2013-05-29 12:10:00,
2013-05-29 08:20:00,57.3,57.0,30.06,SSW,212,0.0,0.0,99,0.01,,---,0.21,VWS V14.01,2013-05-29 12:20:00,
2013-05-29 08:30:00,57.4,57.1,30.06,SSW,212,0.0,0.0,99,0.01,,---,0.21,VWS V14.01,2013-05-29 12:30:00,
2013-05-29 08:40:00,57.7,57.4,30.06,SW,231,0.0,0.0,99,0.00,,---,0.21,VWS V14.01,2013-05-29 12:40:00,
2013-05-29 08:50:00,58.1,57.8,30.06,SW,217,0.0,0.0,99,0.00,,---,0.21,VWS V14.01,2013-05-29 12:50:00,
2013-05-29 09:00:00,58.6,58.3,30.06,SW,221,0.0,0.0,99,0.00,,---,0.21,VWS V14.01,2013-05-29 13:00:00,
2013-05-29 09:10:00,59.0,58.7,30.05,SE,139,0.0,0.0,99,0.00,,---,0.21,VWS V14.01,2013-05-29 13:10:00,
2013-05-29 09:20:00,59.3,59.0,30.05,ESE,118,0.0,3.0,99,0.00,,---,0.21,VWS V14.01,2013-05-29 13:20:00,
2013-05-29 09:30:00,59.9,59.6,30.06,South,175,0.0,0.0,99,0.00,,---,0.21,VWS V14.01,2013-05-29 13:30:00,
2013-05-29 09:40:00,60.3,59.7,30.06,SSW,200,0.0,2.0,98,0.00,,---,0.21,VWS V14.01,2013-05-29 13:40:00,
2013-05-29 09:50:00,60.7,60.1,30.06,South,180,0.0,0.0,98,0.00,,---,0.21,VWS V14.01,2013-05-29 13:50:00,
2013-05-29 10:00:00,61.0,60.4,30.06,South,180,0.0,0.0,98,0.00,,---,0.21,VWS V14.01,2013-05-29 14:00:00,
2013-05-29 10:10:00,61.2,60.6,30.05,SSE,152,0.0,0.0,98,0.00,,---,0.21,VWS V14.01,2013-05-29 14:10:00,
2013-05-29 10:20:00,61.3,60.7,30.06,SE,139,0.0,0.0,98,0.00,,---,0.21,VWS V14.01,2013-05-29 14:20:00,
2013-05-29 10:30:00,61.9,61.3,30.06,SE,139,0.0,0.0,98,0.00,,---,0.21,VWS V14.01,2013-05-29 14:30:00,
2013-05-29 10:40:00,62.4,61.8,30.05,South,172,0.0,0.0,98,0.00,,---,0.21,VWS V14.01,2013-05-29 14:40:00,
2013-05-29 10:50:00,63.0,61.8,30.04,ENE,61,0.0,0.0,96,0.00,,---,0.21,VWS V14.01,2013-05-29 14:50:00,
2013-05-29 11:00:00,63.6,62.2,30.04,ESE,122,0.0,0.0,95,0.00,,---,0.21,VWS V14.01,2013-05-29 15:00:00,
2013-05-29 11:10:00,64.1,62.3,30.04,ENE,68,1.0,3.0,94,0.00,,---,0.21,VWS V14.01,2013-05-29 15:10:00,
2013-05-29 11:20:00,65.6,63.5,30.04,NE,49,0.0,3.0,93,0.00,,---,0.21,VWS V14.01,2013-05-29 15:20:00,
2013-05-29 11:30:00,66.9,64.2,30.03,North,349,1.0,2.0,91,0.00,,---,0.21,VWS V14.01,2013-05-29 15:30:00,
2013-05-29 11:40:00,67.7,64.7,30.04,ESE,109,0.0,2.0,90,0.00,,---,0.21,VWS V14.01,2013-05-29 15:40:00,
2013-05-29 11:50:00,69.0,65.3,30.03,WSW,245,0.0,4.0,88,0.00,,---,0.21,VWS V14.01,2013-05-29 15:50:00,
2013-05-29 12:00:00,69.3,65.6,30.03,SSW,203,0.0,3.0,88,0.00,,---,0.21,VWS V14.01,2013-05-29 16:00:00,
2013-05-29 12:10:00,70.3,66.2,30.02,SE,127,1.0,5.0,87,0.00,,---,0.21,VWS V14.01,2013-05-29 16:10:00,
2013-05-29 12:20:00,71.8,67.1,30.02,ENE,77,0.0,6.0,85,0.00,,---,0.21,VWS V14.01,2013-05-29 16:20:00,
2013-05-29 12:30:00,72.4,66.2,30.00,NNE,23,0.0,6.0,81,0.00,,---,0.21,VWS V14.01,2013-05-29 16:30:00,
2013-05-29 12:40:00,73.3,67.5,30.01,WSW,242,1.0,4.0,82,0.00,,---,0.21,VWS V14.01,2013-05-29 16:40:00,
2013-05-29 12:50:00,74.4,67.5,30.01,SW,226,1.0,5.0,79,0.00,,---,0.21,VWS V14.01,2013-05-29 16:50:00,
2013-05-29 13:00:00,74.8,67.9,30.01,ESE,121,1.0,4.0,79,0.00,,---,0.21,VWS V14.01,2013-05-29 17:00:00,
2013-05-29 13:10:00,75.7,68.7,30.01,SW,229,0.0,3.0,79,0.00,,---,0.21,VWS V14.01,2013-05-29 17:10:00,
2013-05-29 13:20:00,76.3,68.6,30.01,SW,217,1.0,5.0,77,0.00,,---,0.21,VWS V14.01,2013-05-29 17:20:00,
2013-05-29 13:30:00,76.8,67.9,30.00,SE,128,2.0,4.0,74,0.00,,---,0.21,VWS V14.01,2013-05-29 17:30:00,
2013-05-29 13:40:00,76.8,67.9,30.00,SSW,211,3.0,9.0,74,0.00,,---,0.21,VWS V14.01,2013-05-29 17:40:00,
2013-05-29 13:50:00,77.3,68.4,30.00,WSW,252,3.0,5.0,74,0.00,,---,0.21,VWS V14.01,2013-05-29 17:50:00,
2013-05-29 14:00:00,77.8,68.9,30.00,WNW,300,0.0,4.0,74,0.00,,---,0.21,VWS V14.01,2013-05-29 18:00:00,
2013-05-29 14:10:00,78.6,68.8,29.99,SW,222,2.0,6.0,72,0.00,,---,0.21,VWS V14.01,2013-05-29 18:10:00,
2013-05-29 14:20:00,79.2,69.0,29.99,SE,129,1.0,3.0,71,0.00,,---,0.21,VWS V14.01,2013-05-29 18:20:00,
2013-05-29 14:30:00,78.7,68.5,29.99,SW,221,2.0,10.0,71,0.00,,---,0.21,VWS V14.01,2013-05-29 18:30:00,
2013-05-29 14:40:00,78.5,68.3,29.98,SSW,205,2.0,7.0,71,0.00,,---,0.21,VWS V14.01,2013-05-29 18:40:00,
2013-05-29 14:50:00,78.4,68.2,29.98,ESE,115,1.0,5.0,71,0.00,,---,0.21,VWS V14.01,2013-05-29 18:50:00,
2013-05-29 15:00:00,78.7,68.5,29.98,West,265,0.0,6.0,71,0.00,,---,0.21,VWS V14.01,2013-05-29 19:00:00,
2013-05-29 15:10:00,78.8,69.0,29.98,South,172,0.0,7.0,72,0.00,,---,0.21,VWS V14.01,2013-05-29 19:10:00,
2013-05-29 15:20:00,79.0,68.4,29.98,West,265,3.0,6.0,70,0.00,,---,0.21,VWS V14.01,2013-05-29 19:20:00,
2013-05-29 15:30:00,79.4,68.8,29.98,WNW,295,3.0,8.0,70,0.00,,---,0.21,VWS V14.01,2013-05-29 19:30:00,
2013-05-29 15:40:00,79.6,69.4,29.98,WNW,290,1.0,4.0,71,0.00,,---,0.21,VWS V14.01,2013-05-29 19:40:00,
2013-05-29 15:50:00,79.0,68.8,29.98,SW,221,3.0,7.0,71,0.00,,---,0.21,VWS V14.01,2013-05-29 19:50:00,
2013-05-29 16:00:00,79.7,69.5,29.97,SW,215,2.0,7.0,71,0.00,,---,0.21,VWS V14.01,2013-05-29 20:00:00,
2013-05-29 16:10:00,79.0,68.0,29.98,SW,215,7.0,10.0,69,0.00,,---,0.21,VWS V14.01,2013-05-29 20:10:00,
2013-05-29 16:20:00,79.5,68.9,29.98,SW,235,1.0,7.0,70,0.00,,---,0.21,VWS V14.01,2013-05-29 20:20:00,
2013-05-29 16:30:00,79.7,69.1,29.98,SW,219,2.0,4.0,70,0.00,,---,0.21,VWS V14.01,2013-05-29 20:30:00,
2013-05-29 16:40:00,79.8,69.2,29.98,SW,231,0.0,5.0,70,0.00,,---,0.21,VWS V14.01,2013-05-29 20:40:00,
2013-05-29 16:50:00,79.6,69.0,29.97,SW,236,0.0,5.0,70,0.00,,---,0.21,VWS V14.01,2013-05-29 20:50:00,
2013-05-29 17:00:00,79.9,69.2,29.97,SW,236,1.0,5.0,70,0.00,,---,0.21,VWS V14.01,2013-05-29 21:00:00,
2013-05-29 17:10:00,80.3,69.6,29.97,WSW,247,2.0,6.0,70,0.00,,---,0.21,VWS V14.01,2013-05-29 21:10:00,
2013-05-29 17:20:00,80.2,69.5,29.97,SW,224,0.0,5.0,70,0.00,,---,0.21,VWS V14.01,2013-05-29 21:20:00,
2013-05-29 17:30:00,80.3,70.5,29.97,WNW,286,1.0,6.0,72,0.00,,---,0.21,VWS V14.01,2013-05-29 21:30:00,
2013-05-29 17:40:00,80.2,69.9,29.96,West,270,1.0,6.0,71,0.00,,---,0.21,VWS V14.01,2013-05-29 21:40:00,
2013-05-29 17:50:00,80.2,70.4,29.95,WSW,248,1.0,8.0,72,0.00,,---,0.21,VWS V14.01,2013-05-29 21:50:00,
2013-05-29 18:00:00,79.6,70.2,29.95,SE,131,0.0,6.0,73,0.00,,---,0.21,VWS V14.01,2013-05-29 22:00:00,
2013-05-29 18:10:00,79.2,69.8,29.94,WSW,256,0.0,5.0,73,0.00,,---,0.21,VWS V14.01,2013-05-29 22:10:00,
2013-05-29 18:20:00,78.9,69.9,29.94,West,265,2.0,5.0,74,0.00,,---,0.21,VWS V14.01,2013-05-29 22:20:00,
2013-05-29 18:30:00,78.5,69.5,29.94,East,101,0.0,6.0,74,0.00,,---,0.21,VWS V14.01,2013-05-29 22:30:00,
2013-05-29 18:40:00,78.4,69.8,29.94,SW,233,1.0,5.0,75,0.00,,---,0.21,VWS V14.01,2013-05-29 22:40:00,
2013-05-29 18:50:00,78.1,69.5,29.94,SW,217,2.0,5.0,75,0.00,,---,0.21,VWS V14.01,2013-05-29 22:50:00,
2013-05-29 19:00:00,77.6,69.4,29.94,SW,221,1.0,6.0,76,0.00,,---,0.21,VWS V14.01,2013-05-29 23:00:00,
2013-05-29 19:10:00,77.2,69.4,29.94,WSW,238,0.0,5.0,77,0.00,,---,0.21,VWS V14.01,2013-05-29 23:10:00,
2013-05-29 19:20:00,76.7,69.3,29.94,SW,215,2.0,8.0,78,0.00,,---,0.21,VWS V14.01,2013-05-29 23:20:00,
2013-05-29 19:30:00,76.1,68.8,29.94,SW,214,0.0,4.0,78,0.00,,---,0.21,VWS V14.01,2013-05-29 23:30:00,
2013-05-29 19:40:00,75.5,68.9,29.94,ESE,109,0.0,0.0,80,0.00,,---,0.21,VWS V14.01,2013-05-29 23:40:00,
2013-05-29 19:50:00,75.0,68.8,29.95,SSW,204,0.0,0.0,81,0.00,,---,0.21,VWS V14.01,2013-05-29 23:50:00,
2013-05-29 20:00:00,74.6,69.1,29.95,SW,219,0.0,0.0,83,0.00,,---,0.21,VWS V14.01,2013-05-30 00:00:00,
2013-05-29 20:10:00,74.0,68.9,29.96,SW,219,0.0,0.0,84,0.00,,---,0.21,VWS V14.01,2013-05-30 00:10:00,
2013-05-29 20:20:00,73.6,69.2,29.95,SW,228,0.0,2.0,86,0.00,,---,0.21,VWS V14.01,2013-05-30 00:20:00,
2013-05-29 20:30:00,73.2,69.1,29.94,ESE,113,0.0,2.0,87,0.00,,---,0.21,VWS V14.01,2013-05-30 00:30:00,
2013-05-29 20:40:00,72.9,68.8,29.94,SE,134,0.0,1.0,87,0.00,,---,0.21,VWS V14.01,2013-05-30 00:40:00,
2013-05-29 20:50:00,72.5,68.8,29.95,NE,49,0.0,2.0,88,0.00,,---,0.21,VWS V14.01,2013-05-30 00:50:00,
2013-05-29 21:00:00,72.3,68.6,29.96,SW,226,0.0,2.0,88,0.00,,---,0.21,VWS V14.01,2013-05-30 01:00:00,
2013-05-29 21:10:00,72.1,68.3,29.98,NW,321,1.0,2.0,88,0.00,,---,0.21,VWS V14.01,2013-05-30 01:10:00,
2013-05-29 21:20:00,70.4,63.9,30.01,WNW,300,2.0,7.0,80,0.00,,---,0.21,VWS V14.01,2013-05-30 01:20:00,
2013-05-29 21:30:00,68.7,63.0,30.01,WNW,285,2.0,6.0,82,0.00,,---,0.21,VWS V14.01,2013-05-30 01:30:00,
2013-05-29 21:40:00,66.6,63.3,30.01,WNW,298,3.0,7.0,89,0.16,,---,0.37,VWS V14.01,2013-05-30 01:40:00,
2013-05-29 21:50:00,65.1,63.0,30.04,WNW,303,1.0,8.0,93,0.40,,---,0.61,VWS V14.01,2013-05-30 01:50:00,
2013-05-29 22:00:00,64.6,63.1,30.04,WNW,298,0.0,6.0,95,0.60,,---,0.81,VWS V14.01,2013-05-30 02:00:00,
2013-05-29 22:10:00,64.6,63.4,30.02,West,269,1.0,4.0,96,0.68,,---,0.89,VWS V14.01,2013-05-30 02:10:00,
2013-05-29 22:20:00,64.2,63.0,30.01,West,270,0.0,3.0,96,0.86,,---,1.07,VWS V14.01,2013-05-30 02:20:00,
2013-05-29 22:30:00,64.0,63.1,30.00,ENE,58,0.0,2.0,97,0.88,,---,1.09,VWS V14.01,2013-05-30 02:30:00,
2013-05-29 22:40:00,63.7,62.8,30.02,SW,225,1.0,2.0,97,0.89,,---,1.10,VWS V14.01,2013-05-30 02:40:00,
2013-05-29 22:50:00,63.7,63.1,30.06,West,263,2.0,7.0,98,0.83,,---,1.20,VWS V14.01,2013-05-30 02:50:00,
2013-05-29 23:00:00,63.7,63.1,30.05,SW,217,0.0,4.0,98,0.92,,---,1.53,VWS V14.01,2013-05-30 03:00:00,
2013-05-29 23:10:00,63.8,63.2,30.02,East,84,0.0,0.0,98,0.74,,---,1.55,VWS V14.01,2013-05-30 03:10:00,
2013-05-29 23:20:00,63.9,63.3,30.02,ENE,63,0.0,0.0,98,0.68,,---,1.57,VWS V14.01,2013-05-30 03:20:00,
2013-05-29 23:30:00,63.9,63.6,30.02,ENE,63,0.0,0.0,99,0.50,,---,1.57,VWS V14.01,2013-05-30 03:30:00,
2013-05-29 23:40:00,63.9,63.6,30.02,ENE,63,0.0,0.0,99,0.48,,---,1.57,VWS V14.01,2013-05-30 03:40:00,
2013-05-29 23:50:00,63.8,63.5,30.02,ENE,63,0.0,0.0,99,0.47,,---,1.57,VWS V14.01,2013-05-30 03:50:00,